Avondale, AZ (85323)

5:52 PM MST on September 02, 2015 (GMT -0700)
Palm Valley Phs 1 Oasis | | Change Station
CLOSE
Current Station
Personal Weather Station
Location: Goodyear, AZ
Elevation: 968 ft
Nearby Weather Stations

Elev 968 ft 33.48 °N, 112.35 °W | Updated 1 second ago

Mostly Cloudy
Mostly Cloudy
103.5 °F
Feels Like 102 °F
N
0.0
Wind Variable Wind from North
Gusts 0.0 mph

Today
High -- | Low -- °F
--% Chance of Precip.
Yesterday
High -- | Low -- °F
Precip. -- in
6:04 AM 6:53 PM
Waning Gibbous, 75% visible
Pressure 29.81 in
Visibility 10.0 miles
Clouds Few 10000 ft
Mostly Cloudy 25000 ft
Heat Index 102 °F
Dew Point 54 °F
Humidity 20%
Rainfall 0.00 in
Snow Depth Not available.
UV 0 out of 12
Pollen 5.10 out of 12
Air Quality Not available.
Flu Activity Not available.
METAR KGYR 030047Z VRB06KT 10SM FEW100SCT180 BKN250 38/10 A2981
Pressure 29.81 in
Visibility 10.0 miles
Clouds Few 10000 ft
Mostly Cloudy 25000 ft
Heat Index 102 °F
Dew Point 54 °F
Humidity 20%
Rainfall 0.00 in
Snow Depth Not available.
UV 0 out of 12
Pollen 5.10 out of 12
Air Quality Not available.
Flu Activity Not available.
METAR KGYR 030047Z VRB06KT 10SM FEW100SCT180 BKN250 38/10 A2981

10-Day Weather Forecast

×

Almanac

Astronomy

Sep. 02, 2015 Rise Set
Actual Time
Civil Twilight
Nautical Twilight
Astronomical Twilight
Moon
Length of Visible Light
Length of Day
Tomorrow will be .
, % of the Moon is Illuminated

Today's Extremes

State Highs State Lows

Community

WunderPhotos

Upload Photos

1,851,855 photos uploaded!

WunderBlogs® & News

Nearby

Air Quality

  Air Quality AQ Index Pollutant
Not available.

Snow Depth

Station Depth Elevation

Earthquake Activity

City Distance Mag. Time & Date
Minimum magnitude displayed is 2.5.

Coastal Water Temperatures

Place Temperature

Stations

Nearby Weather Stations

Station Location Temp. Windchill Dew Point Humidity Wind Precip. Elev Updated Type